createdAt,value
2022-09-03T00:05:05.590Z,67.58
2022-09-03T00:10:16.373Z,67.60
2022-09-03T00:15:22.462Z,67.91
2022-09-03T00:20:33.619Z,68.13
2022-09-03T00:25:39.792Z,68.11
2022-09-03T00:30:46.632Z,68.19
2022-09-03T00:36:05.562Z,68.72
2022-09-03T00:41:11.843Z,68.86
2022-09-03T00:46:19.927Z,68.94
2022-09-03T00:51:38.024Z,69.13
2022-09-03T00:56:53.935Z,69.64
2022-09-03T01:02:09.681Z,69.57
2022-09-03T01:07:41.612Z,69.82
2022-09-03T01:12:51.787Z,69.99
2022-09-03T01:18:23.263Z,70.20
2022-09-03T01:24:11.520Z,70.75
2022-09-03T01:29:20.310Z,70.81
2022-09-03T01:34:32.479Z,70.18
2022-09-03T01:40:13.472Z,72.02
2022-09-03T01:45:21.903Z,72.35
2022-09-03T01:50:35.250Z,72.12
2022-09-03T01:55:47.774Z,72.65
2022-09-03T02:01:02.249Z,72.44
2022-09-03T02:06:07.373Z,72.88
2022-09-03T02:11:11.021Z,72.30
2022-09-03T02:16:17.577Z,71.97
2022-09-03T02:21:24.912Z,73.22
2022-09-03T02:26:28.132Z,72.79
2022-09-03T02:31:32.250Z,72.48
2022-09-03T02:36:39.767Z,72.41
2022-09-03T02:41:44.795Z,72.29
2022-09-03T02:46:53.754Z,72.30
2022-09-03T02:52:09.654Z,73.17
2022-09-03T02:57:15.741Z,75.25
2022-09-03T03:02:19.076Z,74.62
2022-09-03T03:07:22.970Z,75.13
2022-09-03T03:12:26.795Z,74.95
2022-09-03T03:17:30.308Z,74.67
2022-09-03T03:22:33.721Z,74.12
2022-09-03T03:27:40.207Z,73.68
2022-09-03T03:32:43.416Z,73.65
2022-09-03T03:37:47.034Z,73.85
2022-09-03T03:42:50.548Z,73.72
2022-09-03T03:47:58.159Z,73.47
2022-09-03T03:53:01.892Z,73.66
2022-09-03T03:58:05.498Z,73.84
2022-09-03T04:03:08.707Z,74.39
2022-09-03T04:08:13.554Z,74.23
2022-09-03T04:13:17.274Z,73.88
2022-09-03T04:18:20.687Z,74.18
2022-09-03T04:23:24.103Z,74.08
2022-09-03T04:28:27.999Z,74.68
2022-09-03T04:33:34.555Z,74.82
2022-09-03T04:38:40.550Z,74.98
2022-09-03T04:43:44.541Z,75.61
2022-09-03T04:48:51.660Z,75.63
2022-09-03T04:54:01.668Z,75.69
2022-09-03T04:59:08.463Z,75.73
2022-09-03T05:04:11.884Z,75.72
2022-09-03T05:09:15.400Z,75.40
2022-09-03T05:14:20.444Z,75.30
2022-09-03T05:19:24.032Z,75.31
2022-09-03T05:24:28.717Z,74.75
2022-09-03T05:29:34.790Z,74.82
2022-09-03T05:34:38.535Z,75.33
2022-09-03T05:39:42.666Z,75.99
2022-09-03T05:44:46.766Z,75.72
2022-09-03T05:49:53.356Z,75.47
2022-09-03T05:54:56.869Z,75.34
2022-09-03T06:00:00.691Z,75.22
2022-09-03T06:05:04.562Z,75.05
2022-09-03T06:10:08.444Z,74.97
2022-09-03T06:15:11.855Z,74.92
2022-09-03T06:20:15.535Z,74.89
2022-09-03T06:25:19.703Z,74.51
2022-09-03T06:30:25.902Z,74.51
2022-09-03T06:35:29.522Z,74.71
2022-09-03T06:40:37.363Z,74.83
2022-09-03T06:45:40.752Z,74.58
2022-09-03T06:50:44.258Z,74.56
2022-09-03T06:55:57.489Z,74.19
2022-09-03T07:01:18.199Z,74.36
2022-09-03T07:06:22.646Z,74.05
2022-09-03T07:11:29.677Z,73.91
2022-09-03T07:16:35.244Z,73.22
2022-09-03T07:21:38.725Z,73.13
2022-09-03T07:26:47.355Z,72.83
2022-09-03T07:31:52.654Z,72.18
2022-09-03T07:36:56.537Z,72.20
2022-09-03T07:42:00.565Z,71.09
2022-09-03T07:47:07.486Z,70.25
2022-09-03T07:52:11.982Z,70.22
2022-09-03T07:57:17.334Z,68.70
2022-09-03T08:02:20.552Z,66.70
2022-09-03T08:07:23.735Z,65.94
2022-09-03T08:12:27.295Z,64.95
2022-09-03T08:17:30.500Z,66.27
2022-09-03T08:22:34.629Z,66.22
2022-09-03T08:27:38.046Z,65.07
2022-09-03T08:32:41.559Z,64.13
2022-09-03T08:37:45.073Z,63.85
2022-09-03T08:43:09.943Z,64.14
2022-09-03T08:48:23.827Z,63.11
2022-09-03T08:53:42.928Z,62.82
2022-09-03T08:58:46.444Z,62.60
2022-09-03T09:04:15.418Z,62.56
2022-09-03T09:09:26.194Z,62.52
2022-09-03T09:14:39.355Z,61.95
2022-09-03T09:20:02.703Z,59.68
2022-09-03T09:25:18.074Z,58.39
2022-09-03T09:30:21.535Z,56.34
2022-09-03T09:35:25.592Z,55.37
2022-09-03T09:40:34.157Z,55.48
2022-09-03T09:46:08.703Z,54.40
2022-09-03T09:51:19.332Z,53.04
2022-09-03T09:56:25.078Z,53.54
2022-09-03T10:01:30.598Z,51.61
2022-09-03T10:06:54.002Z,49.51
2022-09-03T10:12:06.092Z,50.19
2022-09-03T10:17:30.085Z,49.53
2022-09-03T10:22:57.062Z,48.54
2022-09-03T10:28:02.371Z,46.55
2022-09-03T10:33:19.544Z,45.43
2022-09-03T10:38:38.313Z,45.08
2022-09-03T10:43:47.973Z,45.33
2022-09-03T10:49:14.324Z,46.47
2022-09-03T10:54:36.273Z,44.77
2022-09-03T10:59:48.492Z,45.48
2022-09-03T11:05:03.373Z,44.50
2022-09-03T11:10:25.328Z,44.94
2022-09-03T11:15:55.415Z,43.08
2022-09-03T11:21:01.740Z,43.61
2022-09-03T11:26:13.014Z,43.40
2022-09-03T11:31:45.226Z,44.10
2022-09-03T11:36:48.539Z,44.05
2022-09-03T11:42:00.069Z,43.41
2022-09-03T11:47:16.006Z,42.73
2022-09-03T11:52:33.080Z,43.23
2022-09-03T11:57:43.971Z,42.41
2022-09-03T12:03:02.352Z,41.65
2022-09-03T12:08:24.338Z,42.09
2022-09-03T12:13:43.667Z,41.42
2022-09-03T12:18:53.145Z,40.63
2022-09-03T12:23:58.250Z,41.22
2022-09-03T12:29:02.254Z,40.96
2022-09-03T12:34:11.144Z,40.69
2022-09-03T12:44:50.133Z,41.05
2022-09-03T12:49:59.030Z,41.00
2022-09-03T12:55:08.625Z,40.97
2022-09-03T13:00:17.124Z,41.05
2022-09-03T13:05:29.684Z,40.92
2022-09-03T13:10:42.623Z,40.59
2022-09-03T13:16:34.040Z,40.47
2022-09-03T13:22:31.131Z,40.71
2022-09-03T13:28:02.909Z,40.66
2022-09-03T13:33:19.164Z,40.66
2022-09-03T13:38:36.933Z,40.31
2022-09-03T13:43:46.018Z,40.19
2022-09-03T13:49:10.732Z,40.27
2022-09-03T13:54:30.979Z,39.37
2022-09-03T13:59:52.168Z,39.70
2022-09-03T14:05:12.683Z,40.08
2022-09-03T14:10:42.927Z,40.01
2022-09-03T14:16:09.196Z,39.70
2022-09-03T14:21:21.803Z,38.23
2022-09-03T14:26:39.161Z,34.99
2022-09-03T14:32:10.556Z,30.89
2022-09-03T14:37:39.935Z,32.19
2022-09-03T14:42:55.227Z,29.90
2022-09-03T14:48:10.211Z,26.49
2022-09-03T14:54:12.198Z,24.59
2022-09-03T14:59:52.578Z,21.00
2022-09-03T15:05:20.053Z,19.61
2022-09-03T15:10:37.192Z,17.43
2022-09-03T15:15:43.265Z,17.91
2022-09-03T15:20:50.263Z,17.21
2022-09-03T15:25:59.724Z,15.69
2022-09-03T15:31:46.719Z,14.09
2022-09-03T15:36:55.995Z,14.54
2022-09-03T15:42:07.199Z,13.93
2022-09-03T15:47:14.702Z,13.40
2022-09-03T15:52:25.185Z,12.75
2022-09-03T15:58:04.852Z,13.22
2022-09-03T16:03:23.877Z,13.30
2022-09-03T16:08:54.084Z,13.46
2022-09-03T16:14:09.580Z,14.12
2022-09-03T16:19:25.471Z,14.00
2022-09-03T16:25:04.111Z,14.58
2022-09-03T16:30:13.868Z,14.99
2022-09-03T16:35:32.238Z,15.60
2022-09-03T16:40:35.400Z,16.00
2022-09-03T16:45:55.347Z,16.72
2022-09-03T16:51:06.848Z,17.49
2022-09-03T16:56:10.055Z,18.58
2022-09-03T17:01:39.677Z,19.62
2022-09-03T17:07:04.909Z,20.46
2022-09-03T17:12:21.435Z,22.07
2022-09-03T17:17:43.274Z,23.31
2022-09-03T17:23:13.720Z,24.92
2022-09-03T17:29:02.906Z,28.61
2022-09-03T17:34:55.062Z,32.14
2022-09-03T17:40:26.431Z,34.00
2022-09-03T17:45:47.560Z,36.80
2022-09-03T17:50:57.218Z,37.33
2022-09-03T17:56:10.880Z,38.38
2022-09-03T18:01:20.783Z,40.05
2022-09-03T18:06:51.713Z,40.43
2022-09-03T18:12:07.247Z,42.63
2022-09-03T18:17:20.434Z,43.29
2022-09-03T18:22:48.425Z,43.30
2022-09-03T18:28:16.106Z,45.39
2022-09-03T18:33:44.095Z,44.74
2022-09-03T18:39:06.143Z,45.10
2022-09-03T18:44:46.065Z,44.81
2022-09-03T18:50:53.837Z,44.82
2022-09-03T18:57:32.393Z,45.67
2022-09-03T19:03:16.688Z,47.64
2022-09-03T19:08:51.910Z,49.04
2022-09-03T19:14:20.513Z,48.33
2022-09-03T19:20:00.381Z,49.26
2022-09-03T19:25:28.990Z,51.72
2022-09-03T19:31:22.830Z,51.34
2022-09-03T19:37:09.775Z,51.22
2022-09-03T19:42:34.327Z,51.11
2022-09-03T19:48:15.011Z,51.91
2022-09-03T19:53:38.290Z,52.34
2022-09-03T19:59:13.445Z,54.34
2022-09-03T20:04:37.544Z,54.66
2022-09-03T20:10:02.055Z,54.42
2022-09-03T20:15:06.442Z,54.58
2022-09-03T20:20:34.581Z,55.27
2022-09-03T20:25:44.446Z,55.56
2022-09-03T20:31:06.466Z,55.85
2022-09-03T20:36:27.016Z,56.35
2022-09-03T20:42:02.064Z,56.08
2022-09-03T20:47:42.964Z,56.66
2022-09-03T20:53:11.870Z,55.84
2022-09-03T20:58:38.733Z,56.04
2022-09-03T21:03:44.908Z,57.26
2022-09-03T21:08:57.335Z,57.08
2022-09-03T21:14:18.769Z,57.04
2022-09-03T21:19:49.527Z,58.52
2022-09-03T21:25:02.151Z,58.64
2022-09-03T21:30:10.094Z,58.39
2022-09-03T21:35:28.640Z,58.54
2022-09-03T21:40:33.293Z,57.26
2022-09-03T21:45:46.288Z,57.95
2022-09-03T21:51:00.485Z,58.13
2022-09-03T21:56:09.530Z,58.57
2022-09-03T22:01:23.850Z,59.02
2022-09-03T22:06:50.455Z,59.20
2022-09-03T22:12:14.349Z,59.50
2022-09-03T22:17:46.538Z,60.01
2022-09-03T22:22:58.418Z,59.94
2022-09-03T22:28:17.309Z,60.05
2022-09-03T22:33:49.922Z,60.05
2022-09-03T22:39:03.373Z,60.48
2022-09-03T22:44:21.938Z,60.35
2022-09-03T22:49:38.971Z,61.38
2022-09-03T22:55:06.756Z,61.73
2022-09-03T23:00:11.709Z,61.95
2022-09-03T23:05:18.038Z,60.98
2022-09-03T23:10:33.890Z,61.27
2022-09-03T23:15:40.683Z,61.14
2022-09-03T23:20:50.837Z,61.37
2022-09-03T23:26:16.182Z,62.60
2022-09-03T23:31:23.204Z,61.57
2022-09-03T23:37:16.106Z,61.71
2022-09-03T23:42:55.919Z,62.87
2022-09-03T23:48:13.771Z,62.09
2022-09-03T23:53:26.093Z,62.44
2022-09-03T23:58:42.821Z,62.76
